createdAt,value
2023-12-18T00:02:23.525Z,10.20
2023-12-18T00:04:50.028Z,7.63
2023-12-18T00:07:16.741Z,7.88
2023-12-18T00:09:43.365Z,6.95
2023-12-18T00:12:09.931Z,8.40
2023-12-18T00:14:37.306Z,6.35
2023-12-18T00:17:03.999Z,13.02
2023-12-18T00:19:30.711Z,8.27
2023-12-18T00:21:57.377Z,9.48
2023-12-18T00:24:23.951Z,8.95
2023-12-18T00:26:50.596Z,8.35
2023-12-18T00:29:17.117Z,6.68
2023-12-18T00:31:43.964Z,7.88
2023-12-18T00:34:10.688Z,6.53
2023-12-18T00:36:37.462Z,6.45
2023-12-18T00:39:04.073Z,8.48
2023-12-18T00:41:30.584Z,6.80
2023-12-18T00:43:57.105Z,10.77
2023-12-18T00:46:23.662Z,7.60
2023-12-18T00:48:50.311Z,9.95
2023-12-18T00:51:16.927Z,6.90
2023-12-18T00:53:43.634Z,11.93
2023-12-18T00:56:10.294Z,13.07
2023-12-18T00:58:36.876Z,16.20
2023-12-18T01:01:03.546Z,10.18
2023-12-18T01:03:30.364Z,10.05
2023-12-18T01:05:57.001Z,10.10
2023-12-18T01:08:23.631Z,10.63
2023-12-18T01:10:50.165Z,10.75
2023-12-18T01:13:16.713Z,10.65
2023-12-18T01:15:43.288Z,13.25
2023-12-18T01:18:10.301Z,7.65
2023-12-18T01:20:36.919Z,8.32
2023-12-18T01:23:05.003Z,8.20
2023-12-18T01:25:32.668Z,7.43
2023-12-18T01:28:00.730Z,9.48
2023-12-18T01:30:27.892Z,7.20
2023-12-18T01:32:54.670Z,6.00
2023-12-18T01:35:21.354Z,7.55
2023-12-18T01:37:47.941Z,5.63
2023-12-18T01:40:14.542Z,6.05
2023-12-18T01:42:45.132Z,5.78
2023-12-18T01:45:12.392Z,5.15
2023-12-18T01:47:39.367Z,6.65
2023-12-18T01:50:06.836Z,6.82
2023-12-18T01:52:34.693Z,6.63
2023-12-18T01:55:02.022Z,8.20
2023-12-18T01:57:29.089Z,9.90
2023-12-18T01:59:56.857Z,6.82
2023-12-18T02:02:23.487Z,9.90
2023-12-18T02:04:50.327Z,8.70
2023-12-18T02:07:16.902Z,8.05
2023-12-18T02:09:44.063Z,13.63
2023-12-18T02:12:10.797Z,10.02
2023-12-18T02:14:38.280Z,7.28
2023-12-18T02:17:04.859Z,5.85
2023-12-18T02:19:32.567Z,5.45
2023-12-18T02:21:59.228Z,5.57
2023-12-18T02:24:26.070Z,5.10
2023-12-18T02:26:54.227Z,6.13
2023-12-18T02:29:20.796Z,6.07
2023-12-18T02:31:47.290Z,8.55
2023-12-18T02:34:13.951Z,6.22
2023-12-18T02:36:40.681Z,5.18
2023-12-18T02:39:07.480Z,8.38
2023-12-18T02:41:34.028Z,6.38
2023-12-18T02:44:00.669Z,8.57
2023-12-18T02:46:27.192Z,8.48
2023-12-18T02:48:53.793Z,7.20
2023-12-18T02:51:20.395Z,5.70
2023-12-18T02:53:46.977Z,7.15
2023-12-18T02:56:14.574Z,10.20
2023-12-18T02:58:41.819Z,7.38
2023-12-18T03:01:08.420Z,7.13
2023-12-18T03:03:35.184Z,5.70
2023-12-18T03:06:02.138Z,10.75
2023-12-18T03:08:28.882Z,7.43
2023-12-18T03:10:55.466Z,5.88
2023-12-18T03:13:22.176Z,6.03
2023-12-18T03:15:48.872Z,5.50
2023-12-18T03:18:15.721Z,6.13
2023-12-18T03:20:42.334Z,6.53
2023-12-18T03:23:08.945Z,5.30
2023-12-18T03:25:35.490Z,6.65
2023-12-18T03:28:02.035Z,9.25
2023-12-18T03:30:28.658Z,5.28
2023-12-18T03:32:56.754Z,7.05
2023-12-18T03:35:23.636Z,6.72
2023-12-18T03:37:50.184Z,6.93
2023-12-18T03:40:16.691Z,6.20
2023-12-18T03:42:43.323Z,5.55
2023-12-18T03:45:10.342Z,6.85
2023-12-18T03:47:37.076Z,5.22
2023-12-18T03:50:03.932Z,5.78
2023-12-18T03:52:30.485Z,6.80
2023-12-18T03:54:57.091Z,8.90
2023-12-18T03:57:25.388Z,5.35
2023-12-18T03:59:52.034Z,8.05
2023-12-18T04:02:18.543Z,5.68
2023-12-18T04:04:46.206Z,5.65
2023-12-18T04:07:12.857Z,6.28
2023-12-18T04:09:40.130Z,7.40
2023-12-18T04:12:08.118Z,7.32
2023-12-18T04:14:34.739Z,8.90
2023-12-18T04:17:01.277Z,6.50
2023-12-18T04:19:27.966Z,7.60
2023-12-18T04:21:54.741Z,6.30
2023-12-18T04:24:21.354Z,6.70
2023-12-18T04:26:48.176Z,6.40
2023-12-18T04:29:14.747Z,8.20
2023-12-18T04:31:41.346Z,5.53
2023-12-18T04:34:08.393Z,17.00
2023-12-18T04:36:41.529Z,7.22
2023-12-18T04:39:08.333Z,12.75
2023-12-18T04:41:34.969Z,6.68
2023-12-18T04:44:01.598Z,9.05
2023-12-18T04:46:28.171Z,6.25
2023-12-18T04:48:54.842Z,6.32
2023-12-18T04:51:21.639Z,7.57
2023-12-18T04:53:48.226Z,5.15
2023-12-18T04:56:14.801Z,5.88
2023-12-18T04:58:41.370Z,8.90
2023-12-18T05:01:08.063Z,7.38
2023-12-18T05:03:37.011Z,6.07
2023-12-18T05:06:05.324Z,5.30
2023-12-18T05:08:31.904Z,9.75
2023-12-18T05:10:58.432Z,6.30
2023-12-18T05:13:24.962Z,6.25
2023-12-18T05:15:52.741Z,6.28
2023-12-18T05:18:19.726Z,5.57
2023-12-18T05:20:46.366Z,6.57
2023-12-18T05:23:12.941Z,10.77
2023-12-18T05:25:39.440Z,7.20
2023-12-18T05:28:06.183Z,6.75
2023-12-18T05:30:34.848Z,9.07
2023-12-18T05:33:03.339Z,14.15
2023-12-18T05:35:30.104Z,13.65
2023-12-18T05:37:56.617Z,10.60
2023-12-18T05:40:23.141Z,9.65
2023-12-18T05:42:50.913Z,13.65
2023-12-18T05:45:17.952Z,9.68
2023-12-18T05:47:44.548Z,11.23
2023-12-18T05:50:11.988Z,8.57
2023-12-18T05:52:38.815Z,10.75
2023-12-18T05:55:08.377Z,9.93
2023-12-18T05:57:36.326Z,8.40
2023-12-18T06:00:03.488Z,10.18
2023-12-18T06:02:29.954Z,7.07
2023-12-18T06:04:56.450Z,9.27
2023-12-18T06:07:22.982Z,8.57
2023-12-18T06:09:49.602Z,7.18
2023-12-18T06:12:16.180Z,6.93
2023-12-18T06:14:43.546Z,7.25
2023-12-18T06:17:10.903Z,7.20
2023-12-18T06:19:38.388Z,7.63
2023-12-18T06:22:05.428Z,10.10
2023-12-18T06:24:32.002Z,10.13
2023-12-18T06:26:58.806Z,10.32
2023-12-18T06:29:28.659Z,7.18
2023-12-18T06:31:55.328Z,7.13
2023-12-18T06:34:22.096Z,11.55
2023-12-18T06:36:48.844Z,9.02
2023-12-18T06:39:15.461Z,8.60
2023-12-18T06:41:42.223Z,7.10
2023-12-18T06:44:08.774Z,7.68
2023-12-18T06:46:35.450Z,7.32
2023-12-18T06:49:04.566Z,7.18
2023-12-18T06:51:31.316Z,7.63
2023-12-18T06:53:57.852Z,5.95
2023-12-18T06:56:24.402Z,7.20
2023-12-18T06:58:50.938Z,9.02
2023-12-18T07:01:18.170Z,7.65
2023-12-18T07:03:45.133Z,6.95
2023-12-18T07:06:11.798Z,8.50
2023-12-18T07:08:40.629Z,8.15
2023-12-18T07:11:08.218Z,9.57
2023-12-18T07:13:34.902Z,8.80
2023-12-18T07:16:01.510Z,6.22
2023-12-18T07:18:28.166Z,8.68
2023-12-18T07:20:54.793Z,8.02
2023-12-18T07:23:21.340Z,8.07
2023-12-18T07:25:47.860Z,12.15
2023-12-18T07:28:14.395Z,13.30
2023-12-18T07:30:41.274Z,22.20
2023-12-18T07:33:08.313Z,16.50
2023-12-18T07:35:35.019Z,15.93
2023-12-18T07:38:01.716Z,9.00
2023-12-18T07:40:28.225Z,13.65
2023-12-18T07:42:54.872Z,18.17
2023-12-18T07:45:21.501Z,15.95
2023-12-18T07:47:48.146Z,18.33
2023-12-18T07:50:14.962Z,17.02
2023-12-18T07:52:41.741Z,23.75
2023-12-18T07:55:09.010Z,16.30
2023-12-18T07:57:35.733Z,26.75
2023-12-18T08:00:03.138Z,40.78
2023-12-18T08:02:29.651Z,45.35
2023-12-18T08:04:56.362Z,50.13
2023-12-18T08:07:22.919Z,37.97
2023-12-18T08:09:49.502Z,27.95
2023-12-18T08:12:16.117Z,28.98
2023-12-18T08:14:45.521Z,25.95
2023-12-18T08:17:13.323Z,39.70
2023-12-18T08:19:39.953Z,39.60
2023-12-18T08:22:06.536Z,38.45
2023-12-18T08:24:33.113Z,27.90
2023-12-18T08:26:59.725Z,33.55
2023-12-18T08:29:26.755Z,23.70
2023-12-18T08:31:53.326Z,40.22
2023-12-18T08:34:19.970Z,29.05
2023-12-18T08:36:46.728Z,22.30
2023-12-18T08:39:13.542Z,26.60
2023-12-18T08:41:42.335Z,35.58
2023-12-18T08:44:09.931Z,45.45
2023-12-18T08:46:36.726Z,37.95
2023-12-18T08:49:03.449Z,41.50
2023-12-18T08:51:30.040Z,39.42
2023-12-18T08:53:56.985Z,24.80
2023-12-18T08:56:25.706Z,40.13
2023-12-18T08:58:55.842Z,42.90
2023-12-18T09:01:22.507Z,39.65
2023-12-18T09:03:49.170Z,34.05
2023-12-18T09:06:15.883Z,23.70
2023-12-18T09:08:42.553Z,37.85
2023-12-18T09:11:10.048Z,38.00
2023-12-18T09:13:38.028Z,39.00
2023-12-18T09:16:07.976Z,23.92
2023-12-18T09:18:35.183Z,26.80
2023-12-18T09:21:02.412Z,31.73
2023-12-18T09:23:29.038Z,35.55
2023-12-18T09:25:55.815Z,25.08
2023-12-18T09:28:22.356Z,31.75
2023-12-18T09:30:49.017Z,29.63
2023-12-18T09:33:15.814Z,31.67
2023-12-18T09:35:42.744Z,30.45
2023-12-18T09:38:09.294Z,22.23
2023-12-18T09:40:35.966Z,22.95
2023-12-18T09:43:05.187Z,25.17
2023-12-18T09:45:32.309Z,24.80
2023-12-18T09:47:59.862Z,30.13
2023-12-18T09:50:26.669Z,20.98
2023-12-18T09:53:08.134Z,19.52
2023-12-18T09:55:35.457Z,19.10
2023-12-18T09:58:02.419Z,21.92
2023-12-18T10:00:29.411Z,19.33
2023-12-18T10:02:57.752Z,18.15
2023-12-18T10:05:24.638Z,19.17
2023-12-18T10:07:55.140Z,20.58
2023-12-18T10:10:22.449Z,16.20
2023-12-18T10:12:49.090Z,18.27
2023-12-18T10:15:15.878Z,16.33
2023-12-18T10:17:43.834Z,22.73
2023-12-18T10:20:12.798Z,19.80
2023-12-18T10:22:43.235Z,21.40
2023-12-18T10:25:10.936Z,18.75
2023-12-18T10:27:39.789Z,17.80
2023-12-18T10:30:08.552Z,15.68
2023-12-18T10:32:39.467Z,17.02
2023-12-18T10:35:07.112Z,14.15
2023-12-18T10:37:34.426Z,13.95
2023-12-18T10:40:07.667Z,14.88
2023-12-18T10:42:39.128Z,14.02
2023-12-18T10:45:11.783Z,14.27
2023-12-18T10:47:38.952Z,14.30
2023-12-18T10:50:06.611Z,14.45
2023-12-18T10:52:34.759Z,16.30
2023-12-18T10:55:06.067Z,13.85
2023-12-18T10:57:38.205Z,15.60
2023-12-18T11:00:09.580Z,16.38
2023-12-18T11:02:37.618Z,15.25
2023-12-18T11:05:05.748Z,13.93
2023-12-18T11:07:32.676Z,18.65
2023-12-18T11:10:03.537Z,15.85
2023-12-18T11:12:31.180Z,16.13
2023-12-18T11:15:14.234Z,17.52
2023-12-18T11:17:43.753Z,16.80
2023-12-18T11:20:26.569Z,20.35
2023-12-18T11:22:57.380Z,17.05
2023-12-18T11:25:34.010Z,14.77
2023-12-18T11:28:05.822Z,17.58
2023-12-18T11:30:39.295Z,17.23
2023-12-18T11:33:07.532Z,16.20
2023-12-18T11:35:35.913Z,17.65
2023-12-18T11:38:09.829Z,16.13
2023-12-18T11:40:43.764Z,14.77
2023-12-18T11:43:33.788Z,13.00
2023-12-18T11:46:10.610Z,17.02
2023-12-18T11:48:43.944Z,17.55
2023-12-18T11:51:12.851Z,12.95
2023-12-18T11:53:39.426Z,13.85
2023-12-18T11:56:10.590Z,16.85
2023-12-18T11:58:39.900Z,14.80
2023-12-18T12:01:07.214Z,15.27
2023-12-18T12:03:35.012Z,16.40
2023-12-18T12:06:03.461Z,16.55
2023-12-18T12:08:30.240Z,15.80
2023-12-18T12:10:58.380Z,14.43
2023-12-18T12:13:27.139Z,16.13
2023-12-18T12:16:01.402Z,16.77
2023-12-18T12:18:33.304Z,13.45
2023-12-18T12:21:00.420Z,17.02
2023-12-18T12:23:28.295Z,14.65
2023-12-18T12:26:03.275Z,12.98
2023-12-18T12:28:33.275Z,15.00
2023-12-18T12:31:00.459Z,11.45
2023-12-18T12:33:43.448Z,12.52
2023-12-18T12:36:11.353Z,11.32
2023-12-18T12:38:40.388Z,11.30
2023-12-18T12:41:07.212Z,12.27
2023-12-18T12:43:34.309Z,12.48
2023-12-18T12:46:01.013Z,12.73
2023-12-18T12:48:27.779Z,11.95
2023-12-18T12:50:54.367Z,25.95
2023-12-18T12:53:21.033Z,15.25
2023-12-18T12:55:47.764Z,15.77
2023-12-18T12:58:14.449Z,14.45
2023-12-18T13:00:41.215Z,15.63
2023-12-18T13:03:08.980Z,11.23
2023-12-18T13:05:37.664Z,13.32
2023-12-18T13:08:05.512Z,14.35
2023-12-18T13:10:32.187Z,13.75
2023-12-18T13:12:59.162Z,15.38
2023-12-18T13:15:27.133Z,12.40
2023-12-18T13:17:56.015Z,12.35
2023-12-18T13:20:28.174Z,12.07
2023-12-18T13:22:56.288Z,10.95
2023-12-18T13:25:23.133Z,11.02
2023-12-18T13:27:49.804Z,10.20
2023-12-18T13:30:16.500Z,11.60
2023-12-18T13:32:43.369Z,12.45
2023-12-18T13:35:10.095Z,12.23
2023-12-18T13:37:37.808Z,10.68
2023-12-18T13:40:05.543Z,10.80
2023-12-18T13:42:32.225Z,15.48
2023-12-18T13:44:58.847Z,12.27
2023-12-18T13:47:27.555Z,11.93
2023-12-18T13:49:54.575Z,12.68
2023-12-18T13:52:22.128Z,11.68
2023-12-18T13:54:49.994Z,12.23
2023-12-18T13:57:17.401Z,11.95
2023-12-18T13:59:44.055Z,13.82
2023-12-18T14:02:10.630Z,15.85
2023-12-18T14:04:37.527Z,14.52
2023-12-18T14:07:04.725Z,14.13
2023-12-18T14:09:31.458Z,13.45
2023-12-18T14:11:58.721Z,14.35
2023-12-18T14:14:25.336Z,13.32
2023-12-18T14:16:51.895Z,12.00
2023-12-18T14:19:18.515Z,15.60
2023-12-18T14:21:45.192Z,11.05
2023-12-18T14:24:11.865Z,11.25
2023-12-18T14:26:38.554Z,13.18
2023-12-18T14:29:05.249Z,13.75
2023-12-18T14:31:32.303Z,14.00
2023-12-18T14:33:59.085Z,11.95
2023-12-18T14:36:25.908Z,13.38
2023-12-18T14:38:55.287Z,13.13
2023-12-18T14:41:21.828Z,10.27
2023-12-18T14:43:48.373Z,11.70
2023-12-18T14:46:17.089Z,10.45
2023-12-18T14:48:44.517Z,12.43
2023-12-18T14:51:11.318Z,9.75
2023-12-18T14:53:38.750Z,11.10
2023-12-18T14:56:06.044Z,10.18
2023-12-18T14:58:32.704Z,13.52
2023-12-18T15:00:59.363Z,9.93
2023-12-18T15:03:26.143Z,10.27
2023-12-18T15:05:52.906Z,12.20
2023-12-18T15:08:19.690Z,11.88
2023-12-18T15:10:46.477Z,12.20
2023-12-18T15:13:14.070Z,8.35
2023-12-18T15:15:41.250Z,13.13
2023-12-18T15:18:08.044Z,11.27
2023-12-18T15:20:34.835Z,11.10
2023-12-18T15:23:01.463Z,11.30
2023-12-18T15:25:28.107Z,12.00
2023-12-18T15:27:55.947Z,11.02
2023-12-18T15:30:24.236Z,11.30
2023-12-18T15:32:51.330Z,10.05
2023-12-18T15:35:18.176Z,10.07
2023-12-18T15:37:44.993Z,10.63
2023-12-18T15:40:12.004Z,11.05
2023-12-18T15:42:40.661Z,11.82
2023-12-18T15:45:08.337Z,12.00
2023-12-18T15:47:35.108Z,9.75
2023-12-18T15:50:02.149Z,10.02
2023-12-18T15:52:29.035Z,9.45
2023-12-18T15:54:55.674Z,9.35
2023-12-18T15:57:25.132Z,11.20
2023-12-18T15:59:51.938Z,10.02
2023-12-18T16:02:19.328Z,13.07
2023-12-18T16:04:45.943Z,11.73
2023-12-18T16:07:12.648Z,15.18
2023-12-18T16:09:39.436Z,14.63
2023-12-18T16:12:06.660Z,7.65
2023-12-18T16:14:34.740Z,12.02
2023-12-18T16:17:01.576Z,13.48
2023-12-18T16:19:28.318Z,10.55
2023-12-18T16:21:55.920Z,12.15
2023-12-18T16:24:22.644Z,12.48
2023-12-18T16:26:49.383Z,11.98
2023-12-18T16:29:16.068Z,11.65
2023-12-18T16:31:42.905Z,12.02
2023-12-18T16:34:10.653Z,11.05
2023-12-18T16:36:37.410Z,10.45
2023-12-18T16:39:04.629Z,10.75
2023-12-18T16:41:32.417Z,10.93
2023-12-18T16:43:59.080Z,11.00
2023-12-18T16:46:32.343Z,10.63
2023-12-18T16:49:04.006Z,11.30
2023-12-18T16:51:31.178Z,12.23
2023-12-18T16:53:57.799Z,10.15
2023-12-18T16:56:24.366Z,9.73
2023-12-18T16:58:51.075Z,11.52
2023-12-18T17:01:17.914Z,12.48
2023-12-18T17:03:44.622Z,9.48
2023-12-18T17:06:11.726Z,11.75
2023-12-18T17:08:38.315Z,9.98
2023-12-18T17:11:06.312Z,11.43
2023-12-18T17:13:32.891Z,10.82
2023-12-18T17:15:59.472Z,10.18
2023-12-18T17:18:26.154Z,12.80
2023-12-18T17:20:52.702Z,10.13
2023-12-18T17:23:19.334Z,13.23
2023-12-18T17:25:46.090Z,11.52
2023-12-18T17:28:12.710Z,13.15
2023-12-18T17:30:39.310Z,11.52
2023-12-18T17:33:06.502Z,8.10
2023-12-18T17:35:33.434Z,12.77
2023-12-18T17:37:59.984Z,9.90
2023-12-18T17:40:26.651Z,10.27
2023-12-18T17:42:53.321Z,12.65
2023-12-18T17:45:20.541Z,11.43
2023-12-18T17:47:47.792Z,9.13
2023-12-18T17:50:14.736Z,9.20
2023-12-18T17:52:41.371Z,13.40
2023-12-18T17:55:08.580Z,10.32
2023-12-18T17:57:35.165Z,8.82
2023-12-18T18:00:02.203Z,12.30
2023-12-18T18:02:28.772Z,12.95
2023-12-18T18:04:55.802Z,14.40
2023-12-18T18:07:22.413Z,14.68
2023-12-18T18:09:49.020Z,15.07
2023-12-18T18:12:16.578Z,18.20
2023-12-18T18:14:43.571Z,14.80
2023-12-18T18:17:10.127Z,16.45
2023-12-18T18:19:36.743Z,15.20
2023-12-18T18:22:04.628Z,15.88
2023-12-18T18:24:31.471Z,16.67
2023-12-18T18:27:08.664Z,18.52
2023-12-18T18:29:37.551Z,16.20
2023-12-18T18:32:04.756Z,15.90
2023-12-18T18:34:31.879Z,17.98
2023-12-18T18:36:58.768Z,17.55
2023-12-18T18:39:26.698Z,17.17
2023-12-18T18:41:54.018Z,15.82
2023-12-18T18:44:20.821Z,18.50
2023-12-18T18:46:51.350Z,15.70
2023-12-18T18:49:18.018Z,18.08
2023-12-18T18:51:44.714Z,17.05
2023-12-18T18:54:12.031Z,15.65
2023-12-18T18:56:38.604Z,15.85
2023-12-18T18:59:05.269Z,17.55
2023-12-18T19:01:33.091Z,17.00
2023-12-18T19:04:00.070Z,14.65
2023-12-18T19:06:26.807Z,17.85
2023-12-18T19:08:53.411Z,19.10
2023-12-18T19:11:20.060Z,16.27
2023-12-18T19:13:46.586Z,19.00
2023-12-18T19:16:14.100Z,17.88
2023-12-18T19:18:40.824Z,14.85
2023-12-18T19:21:07.681Z,15.68
2023-12-18T19:23:36.198Z,15.50
2023-12-18T19:26:03.208Z,14.75
2023-12-18T19:28:29.892Z,19.02
2023-12-18T19:30:56.746Z,13.57
2023-12-18T19:33:23.576Z,17.73
2023-12-18T19:35:51.619Z,16.83
2023-12-18T19:38:21.989Z,21.05
2023-12-18T19:40:48.586Z,18.42
2023-12-18T19:43:15.263Z,21.27
2023-12-18T19:45:42.130Z,18.90
2023-12-18T19:48:08.770Z,21.17
2023-12-18T19:50:38.313Z,16.67
2023-12-18T19:53:05.734Z,17.83
2023-12-18T19:55:32.559Z,20.77
2023-12-18T19:57:59.997Z,16.77
2023-12-18T20:00:27.339Z,17.05
2023-12-18T20:02:54.009Z,25.52
2023-12-18T20:05:20.608Z,22.77
2023-12-18T20:07:47.211Z,20.13
2023-12-18T20:10:13.810Z,18.08
2023-12-18T20:12:40.443Z,15.95
2023-12-18T20:15:07.838Z,15.05
2023-12-18T20:17:35.262Z,17.75
2023-12-18T20:20:02.228Z,17.20
2023-12-18T20:22:29.869Z,17.77
2023-12-18T20:24:56.675Z,17.13
2023-12-18T20:27:23.416Z,15.35
2023-12-18T20:29:50.186Z,17.27
2023-12-18T20:32:16.808Z,15.43
2023-12-18T20:34:43.512Z,16.33
2023-12-18T20:37:10.722Z,15.63
2023-12-18T20:39:37.543Z,16.30
2023-12-18T20:42:04.307Z,16.55
2023-12-18T20:44:30.860Z,17.05
2023-12-18T20:46:58.698Z,16.08
2023-12-18T20:49:27.590Z,13.25
2023-12-18T20:51:56.256Z,16.23
2023-12-18T20:54:23.079Z,16.58
2023-12-18T20:56:49.654Z,17.42
2023-12-18T20:59:16.146Z,15.35
2023-12-18T21:01:44.542Z,16.92
2023-12-18T21:04:11.238Z,15.20
2023-12-18T21:06:38.576Z,16.27
2023-12-18T21:09:05.301Z,17.38
2023-12-18T21:11:31.855Z,14.85
2023-12-18T21:13:58.576Z,14.15
2023-12-18T21:16:25.114Z,15.73
2023-12-18T21:18:51.879Z,13.93
2023-12-18T21:21:20.719Z,15.98
2023-12-18T21:23:47.450Z,13.57
2023-12-18T21:26:16.106Z,16.40
2023-12-18T21:28:43.641Z,15.05
2023-12-18T21:31:11.532Z,20.55
2023-12-18T21:33:38.582Z,16.98
2023-12-18T21:36:06.187Z,16.77
2023-12-18T21:38:32.823Z,17.10
2023-12-18T21:41:01.642Z,15.55
2023-12-18T21:43:29.988Z,16.10
2023-12-18T21:45:57.911Z,18.23
2023-12-18T21:48:24.868Z,15.13
2023-12-18T21:50:51.710Z,15.30
2023-12-18T21:53:19.952Z,17.13
2023-12-18T21:55:47.276Z,16.73
2023-12-18T21:58:14.262Z,16.08
2023-12-18T22:00:41.114Z,20.45
2023-12-18T22:03:07.993Z,16.50
2023-12-18T22:05:35.026Z,14.63
2023-12-18T22:08:01.738Z,15.27
2023-12-18T22:10:28.724Z,14.48
2023-12-18T22:12:55.589Z,18.25
2023-12-18T22:15:22.360Z,16.65
2023-12-18T22:17:50.156Z,17.27
2023-12-18T22:20:16.973Z,17.15
2023-12-18T22:22:43.953Z,19.23
2023-12-18T22:25:10.748Z,14.43
2023-12-18T22:27:37.480Z,16.48
2023-12-18T22:30:05.045Z,18.05
2023-12-18T22:32:32.084Z,16.60
2023-12-18T22:34:59.106Z,17.73
2023-12-18T22:37:25.903Z,17.27
2023-12-18T22:39:52.462Z,17.55
2023-12-18T22:42:19.075Z,15.57
2023-12-18T22:44:45.682Z,15.13
2023-12-18T22:47:13.230Z,16.25
2023-12-18T22:49:41.214Z,16.00
2023-12-18T22:52:07.832Z,13.38
2023-12-18T22:54:34.431Z,16.30
2023-12-18T22:57:00.985Z,16.95
2023-12-18T22:59:27.679Z,16.45
2023-12-18T23:01:54.691Z,20.27
2023-12-18T23:04:21.742Z,14.98
2023-12-18T23:06:50.702Z,17.83
2023-12-18T23:09:17.595Z,15.90
2023-12-18T23:11:44.191Z,15.90
2023-12-18T23:14:10.828Z,17.85
2023-12-18T23:16:37.875Z,20.20
2023-12-18T23:19:04.545Z,17.85
2023-12-18T23:21:32.378Z,15.45
2023-12-18T23:24:01.262Z,16.77
2023-12-18T23:26:27.882Z,18.73
2023-12-18T23:28:54.746Z,16.48
2023-12-18T23:31:21.377Z,21.90
2023-12-18T23:33:48.610Z,20.65
2023-12-18T23:36:15.373Z,16.88
2023-12-18T23:38:42.363Z,22.00
2023-12-18T23:41:08.875Z,16.35
2023-12-18T23:43:35.428Z,17.60
2023-12-18T23:46:02.327Z,21.33
2023-12-18T23:48:29.047Z,21.02
2023-12-18T23:50:55.579Z,17.42
2023-12-18T23:53:22.437Z,15.27
2023-12-18T23:55:49.733Z,19.15
2023-12-18T23:58:17.905Z,19.27
